createdAt,value
2018-05-26T00:01:23.464Z,19.80
2018-05-26T00:03:50.977Z,19.80
2018-05-26T00:06:18.760Z,19.80
2018-05-26T00:08:46.288Z,19.80
2018-05-26T00:11:13.892Z,19.80
2018-05-26T00:13:41.428Z,19.80
2018-05-26T00:16:09.070Z,19.80
2018-05-26T00:18:36.612Z,19.80
2018-05-26T00:21:04.148Z,19.70
2018-05-26T00:23:31.713Z,19.60
2018-05-26T00:25:59.279Z,19.60
2018-05-26T00:28:26.781Z,19.60
2018-05-26T00:30:55.186Z,19.60
2018-05-26T00:33:22.717Z,19.60
2018-05-26T00:35:50.300Z,19.60
2018-05-26T00:38:17.902Z,19.60
2018-05-26T00:40:45.454Z,19.60
2018-05-26T00:43:13.070Z,19.60
2018-05-26T00:45:40.689Z,19.60
2018-05-26T00:48:08.193Z,19.60
2018-05-26T00:50:36.480Z,19.60
2018-05-26T00:53:04.048Z,19.50
2018-05-26T00:55:31.575Z,19.60
2018-05-26T00:57:59.174Z,19.50
2018-05-26T01:00:27.521Z,19.50
2018-05-26T01:02:55.023Z,19.50
2018-05-26T01:05:23.307Z,19.40
2018-05-26T01:07:50.890Z,19.40
2018-05-26T01:10:19.168Z,19.40
2018-05-26T01:12:46.664Z,19.40
2018-05-26T01:15:14.953Z,19.30
2018-05-26T01:17:43.258Z,19.30
2018-05-26T01:20:10.811Z,19.30
2018-05-26T01:22:39.100Z,19.20
2018-05-26T01:25:07.351Z,19.20
2018-05-26T01:27:34.885Z,19.20
2018-05-26T01:30:02.396Z,19.20
2018-05-26T01:32:30.046Z,19.10
2018-05-26T01:34:57.555Z,19.10
2018-05-26T01:37:25.870Z,19.00
2018-05-26T01:39:53.460Z,19.00
2018-05-26T01:42:21.013Z,18.90
2018-05-26T01:44:48.591Z,18.90
2018-05-26T01:47:16.135Z,18.90
2018-05-26T01:49:44.441Z,18.90
2018-05-26T01:52:12.098Z,18.90
2018-05-26T01:54:40.388Z,18.80
2018-05-26T01:57:08.107Z,18.80
2018-05-26T01:59:35.667Z,18.80
2018-05-26T02:02:03.166Z,18.70
2018-05-26T02:04:31.495Z,18.70
2018-05-26T02:06:59.206Z,18.70
2018-05-26T02:09:26.958Z,18.70
2018-05-26T02:11:54.447Z,18.70
2018-05-26T02:14:22.026Z,18.70
2018-05-26T02:16:49.617Z,18.60
2018-05-26T02:19:17.231Z,18.60
2018-05-26T02:21:45.519Z,18.60
2018-05-26T02:24:13.779Z,18.60
2018-05-26T02:26:41.431Z,18.60
2018-05-26T02:29:08.990Z,18.60
2018-05-26T02:31:36.504Z,18.50
2018-05-26T02:34:04.133Z,18.50
2018-05-26T02:36:31.656Z,18.50
2018-05-26T02:38:59.139Z,18.50
2018-05-26T02:41:27.379Z,18.50
2018-05-26T02:43:54.988Z,18.40
2018-05-26T02:46:22.577Z,18.40
2018-05-26T02:48:50.903Z,18.30
2018-05-26T02:51:18.492Z,18.30
2018-05-26T02:53:45.995Z,18.30
2018-05-26T02:56:14.299Z,18.30
2018-05-26T02:58:42.670Z,18.30
2018-05-26T03:01:10.936Z,18.30
2018-05-26T03:03:38.542Z,18.20
2018-05-26T03:06:12.002Z,18.20
2018-05-26T03:08:45.306Z,18.20
2018-05-26T03:11:18.578Z,18.20
2018-05-26T03:13:51.916Z,18.20
2018-05-26T03:19:23.621Z,18.20
2018-05-26T03:21:51.106Z,18.20
2018-05-26T03:24:18.701Z,18.20
2018-05-26T03:26:46.401Z,18.10
2018-05-26T03:29:14.696Z,18.10
2018-05-26T03:31:42.206Z,18.10
2018-05-26T03:34:09.906Z,18.10
2018-05-26T03:36:37.474Z,18.10
2018-05-26T03:39:05.710Z,18.10
2018-05-26T03:41:33.302Z,18.10
2018-05-26T03:44:00.915Z,18.00
2018-05-26T03:46:29.206Z,18.00
2018-05-26T03:48:57.038Z,18.00
2018-05-26T03:51:24.544Z,18.00
2018-05-26T03:53:53.572Z,17.90
2018-05-26T03:56:33.200Z,17.90
2018-05-26T03:59:12.744Z,18.00
2018-05-26T04:01:40.369Z,18.00
2018-05-26T04:04:07.890Z,18.00
2018-05-26T04:06:35.402Z,18.00
2018-05-26T04:09:02.944Z,18.00
2018-05-26T04:11:30.415Z,18.00
2018-05-26T04:13:59.588Z,18.00
2018-05-26T04:16:27.145Z,18.00
2018-05-26T04:18:54.674Z,18.00
2018-05-26T04:21:22.220Z,18.00
2018-05-26T04:23:49.717Z,18.10
2018-05-26T04:26:17.996Z,18.10
2018-05-26T04:28:45.742Z,18.10
2018-05-26T04:31:13.296Z,18.10
2018-05-26T04:33:40.824Z,18.20
2018-05-26T04:36:08.505Z,18.20
2018-05-26T04:38:36.954Z,18.20
2018-05-26T04:41:04.477Z,18.20
2018-05-26T04:43:31.976Z,18.20
2018-05-26T04:45:59.492Z,18.20
2018-05-26T04:48:26.988Z,18.20
2018-05-26T04:50:54.533Z,18.30
2018-05-26T04:53:22.016Z,18.30
2018-05-26T04:55:50.316Z,18.40
2018-05-26T04:58:18.558Z,18.40
2018-05-26T05:00:46.234Z,18.30
2018-05-26T05:03:13.840Z,18.40
2018-05-26T05:05:42.288Z,18.40
2018-05-26T05:08:09.789Z,18.40
2018-05-26T05:10:37.358Z,18.40
2018-05-26T05:13:04.947Z,18.50
2018-05-26T05:15:33.238Z,18.50
2018-05-26T05:18:01.493Z,18.50
2018-05-26T05:20:29.052Z,18.50
2018-05-26T05:22:56.535Z,18.60
2018-05-26T05:25:24.080Z,18.60
2018-05-26T05:27:51.641Z,18.60
2018-05-26T05:30:19.225Z,18.60
2018-05-26T05:32:46.747Z,18.70
2018-05-26T05:35:15.194Z,18.70
2018-05-26T05:37:42.711Z,18.70
2018-05-26T05:40:11.021Z,18.80
2018-05-26T05:42:38.572Z,18.80
2018-05-26T05:45:06.828Z,18.80
2018-05-26T05:47:34.537Z,18.80
2018-05-26T05:50:02.812Z,18.90
2018-05-26T05:52:30.376Z,18.90
2018-05-26T05:54:57.860Z,18.90
2018-05-26T05:57:26.156Z,19.00
2018-05-26T05:59:54.846Z,19.00
2018-05-26T06:02:23.101Z,19.00
2018-05-26T06:04:50.639Z,19.00
2018-05-26T06:07:18.276Z,19.00
2018-05-26T06:09:46.567Z,19.10
2018-05-26T06:12:14.880Z,19.10
2018-05-26T06:14:42.408Z,19.10
2018-05-26T06:17:10.668Z,19.20
2018-05-26T06:19:38.163Z,19.20
2018-05-26T06:22:05.779Z,19.20
2018-05-26T06:24:33.335Z,19.20
2018-05-26T06:27:01.587Z,19.40
2018-05-26T06:29:29.105Z,19.40
2018-05-26T06:31:56.654Z,19.50
2018-05-26T06:34:25.001Z,19.60
2018-05-26T06:36:52.604Z,19.60
2018-05-26T06:39:20.138Z,19.70
2018-05-26T06:41:47.656Z,19.70
2018-05-26T06:44:15.415Z,19.80
2018-05-26T06:46:43.024Z,19.90
2018-05-26T06:49:10.552Z,19.90
2018-05-26T06:51:39.583Z,20.10
2018-05-26T06:54:07.084Z,20.10
2018-05-26T06:56:34.613Z,20.10
2018-05-26T06:59:03.010Z,20.30
2018-05-26T07:01:30.578Z,20.30
2018-05-26T07:03:58.920Z,20.40
2018-05-26T07:06:26.473Z,20.40
2018-05-26T07:08:54.716Z,20.50
2018-05-26T07:11:22.374Z,20.50
2018-05-26T07:13:49.986Z,20.60
2018-05-26T07:16:18.266Z,20.70
2018-05-26T07:18:46.075Z,20.60
2018-05-26T07:21:13.634Z,20.70
2018-05-26T07:23:42.032Z,20.90
2018-05-26T07:26:09.700Z,20.80
2018-05-26T07:28:37.384Z,20.90
2018-05-26T07:31:04.899Z,21.00
2018-05-26T07:33:32.647Z,21.00
2018-05-26T07:36:00.305Z,21.10
2018-05-26T07:38:27.880Z,21.20
2018-05-26T07:40:55.387Z,21.20
2018-05-26T07:43:22.883Z,21.20
2018-05-26T07:45:50.420Z,21.30
2018-05-26T07:48:17.917Z,21.40
2018-05-26T07:50:45.476Z,21.40
2018-05-26T07:53:13.046Z,21.50
2018-05-26T07:55:40.606Z,21.50
2018-05-26T07:58:08.248Z,21.50
2018-05-26T08:00:36.141Z,21.60
2018-05-26T08:03:03.648Z,21.60
2018-05-26T08:05:31.164Z,21.60
2018-05-26T08:07:58.703Z,21.70
2018-05-26T08:10:27.001Z,21.80
2018-05-26T08:12:55.514Z,21.90
2018-05-26T08:15:23.147Z,21.90
2018-05-26T08:17:50.741Z,22.00
2018-05-26T08:20:19.027Z,22.10
2018-05-26T08:22:47.411Z,22.20
2018-05-26T08:25:15.705Z,22.30
2018-05-26T08:27:43.198Z,22.30
2018-05-26T08:30:11.476Z,22.50
2018-05-26T08:32:39.963Z,22.60
2018-05-26T08:35:08.307Z,22.70
2018-05-26T08:37:35.996Z,22.70
2018-05-26T08:40:03.527Z,22.70
2018-05-26T08:42:31.183Z,22.80
2018-05-26T08:44:59.538Z,22.90
2018-05-26T08:47:27.133Z,22.90
2018-05-26T08:49:55.527Z,23.00
2018-05-26T08:52:23.256Z,23.00
2018-05-26T08:54:50.817Z,23.10
2018-05-26T08:57:19.058Z,23.20
2018-05-26T08:59:47.380Z,23.30
2018-05-26T09:02:14.875Z,23.30
2018-05-26T09:04:42.404Z,23.40
2018-05-26T09:07:10.698Z,23.50
2018-05-26T09:09:38.269Z,23.50
2018-05-26T09:12:06.574Z,23.70
2018-05-26T09:14:34.320Z,23.70
2018-05-26T09:17:02.745Z,23.80
2018-05-26T09:19:30.362Z,23.70
2018-05-26T09:21:57.982Z,23.90
2018-05-26T09:24:25.533Z,24.00
2018-05-26T09:26:53.788Z,24.40
2018-05-26T09:29:21.416Z,24.40
2018-05-26T09:31:48.970Z,24.60
2018-05-26T09:34:16.539Z,24.70
2018-05-26T09:36:44.943Z,25.10
2018-05-26T09:39:12.672Z,25.10
2018-05-26T09:41:40.180Z,25.40
2018-05-26T09:44:08.578Z,25.90
2018-05-26T09:46:36.113Z,25.90
2018-05-26T09:49:03.798Z,26.20
2018-05-26T09:51:32.095Z,26.70
2018-05-26T09:54:00.362Z,26.90
2018-05-26T09:56:28.687Z,27.10
2018-05-26T09:58:56.961Z,27.20
2018-05-26T10:01:25.233Z,27.40
2018-05-26T10:03:53.514Z,27.60
2018-05-26T10:06:21.094Z,27.60
2018-05-26T10:08:48.772Z,27.80
2018-05-26T10:11:16.252Z,28.00
2018-05-26T10:13:44.528Z,27.80
2018-05-26T10:16:12.112Z,27.80
2018-05-26T10:18:40.385Z,27.30
2018-05-26T10:21:08.915Z,27.20
2018-05-26T10:23:36.408Z,27.20
2018-05-26T10:26:03.941Z,27.60
2018-05-26T10:28:32.197Z,28.40
2018-05-26T10:30:59.728Z,28.40
2018-05-26T10:33:27.261Z,28.80
2018-05-26T10:35:55.629Z,29.00
2018-05-26T10:38:23.111Z,29.00
2018-05-26T10:40:50.637Z,29.10
2018-05-26T10:43:18.187Z,29.40
2018-05-26T10:45:57.800Z,29.40
2018-05-26T10:48:25.301Z,29.30
2018-05-26T10:50:53.759Z,29.10
2018-05-26T10:53:21.272Z,29.10
2018-05-26T10:55:48.886Z,29.10
2018-05-26T10:58:16.729Z,29.00
2018-05-26T11:00:44.285Z,28.90
2018-05-26T11:03:12.556Z,29.70
2018-05-26T11:05:40.037Z,29.70
2018-05-26T11:08:08.391Z,30.50
2018-05-26T11:10:35.913Z,30.40
2018-05-26T11:13:03.445Z,30.90
2018-05-26T11:15:30.929Z,31.40
2018-05-26T11:17:59.346Z,32.20
2018-05-26T11:20:27.022Z,32.20
2018-05-26T11:22:54.604Z,32.60
2018-05-26T11:25:22.849Z,33.10
2018-05-26T11:27:51.120Z,33.30
2018-05-26T11:30:18.708Z,33.30
2018-05-26T11:32:46.203Z,33.50
2018-05-26T11:35:13.762Z,33.50
2018-05-26T11:37:42.041Z,33.90
2018-05-26T11:40:09.639Z,33.80
2018-05-26T11:42:37.888Z,33.70
2018-05-26T11:45:05.620Z,33.70
2018-05-26T11:47:33.123Z,33.60
2018-05-26T11:50:00.628Z,33.60
2018-05-26T11:52:28.884Z,33.60
2018-05-26T11:54:56.482Z,33.60
2018-05-26T11:57:24.744Z,33.70
2018-05-26T11:59:52.267Z,33.60
2018-05-26T12:02:20.779Z,33.90
2018-05-26T12:04:48.368Z,34.20
2018-05-26T12:07:15.905Z,34.40
2018-05-26T12:09:43.414Z,34.60
2018-05-26T12:12:10.927Z,34.60
2018-05-26T12:14:39.313Z,34.00
2018-05-26T12:17:08.057Z,33.80
2018-05-26T12:19:36.345Z,33.80
2018-05-26T12:22:03.913Z,33.60
2018-05-26T12:24:31.594Z,33.40
2018-05-26T12:26:59.128Z,33.10
2018-05-26T12:29:27.372Z,33.00
2018-05-26T12:31:54.973Z,33.00
2018-05-26T12:34:23.361Z,33.10
2018-05-26T12:36:50.884Z,33.00
2018-05-26T12:39:18.433Z,33.20
2018-05-26T12:41:46.060Z,33.30
2018-05-26T12:44:13.639Z,33.70
2018-05-26T12:46:41.513Z,34.10
2018-05-26T12:49:09.090Z,34.20
2018-05-26T12:51:36.704Z,34.10
2018-05-26T12:54:04.249Z,33.80
2018-05-26T12:56:32.631Z,33.50
2018-05-26T12:59:00.145Z,33.50
2018-05-26T13:01:27.670Z,33.50
2018-05-26T13:03:55.162Z,33.60
2018-05-26T13:06:23.445Z,33.70
2018-05-26T13:08:51.704Z,33.70
2018-05-26T13:11:19.301Z,33.70
2018-05-26T13:13:47.589Z,33.60
2018-05-26T13:16:15.124Z,33.60
2018-05-26T13:18:42.616Z,33.60
2018-05-26T13:21:10.157Z,33.40
2018-05-26T13:23:37.833Z,33.10
2018-05-26T13:26:05.332Z,33.10
2018-05-26T13:28:32.938Z,33.40
2018-05-26T13:31:01.207Z,33.70
2018-05-26T13:33:28.799Z,33.70
2018-05-26T13:35:57.087Z,33.20
2018-05-26T13:38:25.439Z,32.80
2018-05-26T13:40:52.975Z,32.80
2018-05-26T13:43:20.717Z,32.80
2018-05-26T13:45:49.130Z,33.40
2018-05-26T13:48:16.629Z,33.30
2018-05-26T13:50:44.778Z,33.60
2018-05-26T13:53:13.190Z,33.80
2018-05-26T13:55:40.730Z,33.70
2018-05-26T13:58:09.025Z,33.10
2018-05-26T14:00:37.445Z,33.00
2018-05-26T14:03:04.940Z,32.90
2018-05-26T14:05:32.745Z,32.80
2018-05-26T14:08:00.991Z,32.70
2018-05-26T14:10:28.616Z,32.70
2018-05-26T14:12:56.868Z,32.80
2018-05-26T14:15:24.419Z,32.80
2018-05-26T14:17:51.964Z,32.90
2018-05-26T14:20:19.497Z,33.00
2018-05-26T14:22:47.208Z,33.10
2018-05-26T14:25:15.329Z,33.10
2018-05-26T14:27:42.891Z,33.00
2018-05-26T14:30:10.427Z,32.60
2018-05-26T14:32:38.780Z,32.20
2018-05-26T14:35:06.341Z,32.30
2018-05-26T14:37:33.864Z,32.00
2018-05-26T14:40:01.464Z,31.70
2018-05-26T14:42:29.121Z,31.50
2018-05-26T14:44:56.668Z,31.50
2018-05-26T14:47:24.968Z,31.40
2018-05-26T14:49:53.318Z,31.50
2018-05-26T14:52:20.821Z,31.50
2018-05-26T14:54:49.089Z,31.60
2018-05-26T14:57:16.616Z,31.60
2018-05-26T14:59:44.156Z,31.70
2018-05-26T15:02:12.555Z,31.60
2018-05-26T15:04:40.746Z,31.60
2018-05-26T15:07:08.263Z,31.50
2018-05-26T15:09:35.817Z,31.50
2018-05-26T15:12:03.326Z,31.40
2018-05-26T15:14:30.816Z,31.40
2018-05-26T15:16:59.120Z,31.20
2018-05-26T15:19:26.631Z,31.20
2018-05-26T15:21:54.359Z,31.30
2018-05-26T15:24:21.884Z,31.20
2018-05-26T15:26:49.502Z,31.10
2018-05-26T15:29:16.997Z,31.00
2018-05-26T15:31:44.596Z,30.90
2018-05-26T15:34:12.166Z,30.80
2018-05-26T15:36:39.973Z,30.70
2018-05-26T15:39:08.377Z,30.60
2018-05-26T15:41:37.007Z,30.50
2018-05-26T15:44:04.548Z,30.50
2018-05-26T15:46:32.219Z,30.40
2018-05-26T15:49:00.492Z,30.30
2018-05-26T15:51:28.759Z,30.20
2018-05-26T15:53:56.341Z,30.20
2018-05-26T15:56:23.923Z,30.10
2018-05-26T15:58:51.439Z,30.10
2018-05-26T16:01:18.974Z,30.00
2018-05-26T16:03:47.296Z,29.70
2018-05-26T16:06:15.648Z,29.60
2018-05-26T16:08:43.896Z,29.40
2018-05-26T16:11:11.398Z,29.30
2018-05-26T16:13:38.930Z,29.20
2018-05-26T16:16:06.543Z,29.10
2018-05-26T16:18:34.250Z,29.00
2018-05-26T16:21:02.080Z,29.00
2018-05-26T16:23:29.623Z,28.90
2018-05-26T16:25:57.162Z,28.90
2018-05-26T16:28:24.765Z,28.80
2018-05-26T16:30:52.383Z,28.70
2018-05-26T16:33:19.958Z,28.60
2018-05-26T16:35:48.339Z,28.60
2018-05-26T16:38:16.027Z,28.50
2018-05-26T16:40:44.476Z,28.50
2018-05-26T16:43:12.229Z,28.50
2018-05-26T16:45:39.734Z,28.50
2018-05-26T16:48:07.260Z,28.50
2018-05-26T16:50:34.855Z,28.50
2018-05-26T16:53:02.404Z,28.50
2018-05-26T16:55:29.915Z,28.40
2018-05-26T16:57:57.574Z,28.40
2018-05-26T17:00:25.172Z,28.40
2018-05-26T17:02:52.685Z,28.30
2018-05-26T17:05:20.222Z,28.30
2018-05-26T17:07:47.734Z,28.30
2018-05-26T17:10:15.269Z,28.10
2018-05-26T17:12:42.836Z,28.10
2018-05-26T17:15:10.443Z,28.00
2018-05-26T17:17:38.802Z,27.90
2018-05-26T17:20:06.310Z,27.80
2018-05-26T17:22:34.039Z,27.80
2018-05-26T17:25:01.529Z,27.70
2018-05-26T17:27:29.824Z,27.40
2018-05-26T17:29:58.103Z,27.20
2018-05-26T17:32:26.405Z,27.20
2018-05-26T17:34:54.669Z,27.10
2018-05-26T17:37:22.480Z,27.00
2018-05-26T17:39:50.029Z,27.00
2018-05-26T17:42:18.391Z,26.80
2018-05-26T17:44:47.397Z,26.70
2018-05-26T17:47:14.921Z,26.70
2018-05-26T17:49:42.699Z,26.60
2018-05-26T17:52:10.255Z,26.40
2018-05-26T17:54:38.704Z,26.30
2018-05-26T17:57:06.231Z,26.30
2018-05-26T17:59:33.786Z,26.30
2018-05-26T18:02:01.363Z,26.30
2018-05-26T18:04:28.916Z,26.20
2018-05-26T18:06:57.181Z,26.10
2018-05-26T18:09:26.442Z,26.00
2018-05-26T18:11:54.077Z,26.00
2018-05-26T18:14:21.669Z,25.90
2018-05-26T18:16:50.049Z,25.90
2018-05-26T18:19:17.640Z,25.90
2018-05-26T18:21:45.199Z,25.80
2018-05-26T18:24:13.474Z,25.70
2018-05-26T18:26:41.074Z,25.70
2018-05-26T18:29:09.335Z,25.70
2018-05-26T18:31:37.029Z,25.70
2018-05-26T18:34:05.435Z,25.50
2018-05-26T18:36:33.000Z,25.50
2018-05-26T18:39:01.319Z,25.50
2018-05-26T18:41:28.812Z,25.50
2018-05-26T18:43:56.369Z,25.50
2018-05-26T18:46:23.890Z,25.40
2018-05-26T18:48:52.162Z,25.30
2018-05-26T18:51:21.258Z,25.20
2018-05-26T18:53:48.814Z,25.20
2018-05-26T18:56:16.430Z,25.20
2018-05-26T18:58:44.692Z,25.10
2018-05-26T19:01:12.309Z,25.10
2018-05-26T19:03:39.802Z,25.00
2018-05-26T19:06:07.318Z,24.90
2018-05-26T19:08:35.171Z,24.90
2018-05-26T19:11:02.854Z,24.90
2018-05-26T19:13:30.512Z,25.00
2018-05-26T19:15:58.896Z,25.10
2018-05-26T19:18:26.522Z,25.10
2018-05-26T19:20:54.790Z,25.20
2018-05-26T19:23:23.115Z,25.30
2018-05-26T19:25:50.738Z,25.30
2018-05-26T19:28:18.369Z,25.30
2018-05-26T19:30:45.925Z,25.20
2018-05-26T19:33:14.232Z,25.20
2018-05-26T19:35:41.751Z,25.20
2018-05-26T19:38:09.434Z,25.20
2018-05-26T19:40:36.982Z,25.10
2018-05-26T19:43:04.575Z,25.10
2018-05-26T19:45:32.134Z,25.00
2018-05-26T19:48:00.442Z,25.10
2018-05-26T19:50:28.003Z,25.00
2018-05-26T19:52:55.595Z,25.10
2018-05-26T19:55:23.282Z,25.00
2018-05-26T19:57:51.141Z,25.00
2018-05-26T20:00:18.661Z,25.00
2018-05-26T20:02:46.222Z,25.00
2018-05-26T20:05:13.993Z,25.00
2018-05-26T20:07:42.302Z,24.90
2018-05-26T20:10:09.848Z,24.90
2018-05-26T20:12:38.450Z,24.80
2018-05-26T20:15:06.191Z,24.80
2018-05-26T20:17:34.617Z,24.80
2018-05-26T20:20:02.186Z,24.70
2018-05-26T20:22:29.697Z,24.70
2018-05-26T20:24:57.201Z,24.70
2018-05-26T20:27:25.607Z,24.60
2018-05-26T20:29:53.192Z,24.50
2018-05-26T20:32:20.772Z,24.50
2018-05-26T20:34:48.316Z,24.50
2018-05-26T20:37:16.704Z,24.40
2018-05-26T20:39:45.086Z,24.40
2018-05-26T20:42:13.397Z,24.40
2018-05-26T20:44:41.058Z,24.40
2018-05-26T20:47:09.422Z,24.30
2018-05-26T20:49:37.058Z,24.30
2018-05-26T20:52:04.643Z,24.20
2018-05-26T20:54:32.164Z,24.20
2018-05-26T20:57:00.431Z,24.20
2018-05-26T20:59:28.760Z,24.20
2018-05-26T21:01:56.265Z,24.20
2018-05-26T21:04:23.905Z,24.10
2018-05-26T21:06:51.472Z,24.10
2018-05-26T21:09:18.967Z,24.10
2018-05-26T21:11:46.489Z,24.10
2018-05-26T21:14:15.883Z,24.10
2018-05-26T21:16:43.481Z,24.10
2018-05-26T21:19:11.774Z,24.10
2018-05-26T21:21:40.172Z,24.00
2018-05-26T21:24:09.204Z,24.00
2018-05-26T21:26:36.716Z,24.00
2018-05-26T21:29:05.055Z,23.90
2018-05-26T21:31:32.810Z,24.00
2018-05-26T21:34:01.199Z,23.90
2018-05-26T21:36:29.491Z,23.90
2018-05-26T21:38:57.025Z,23.90
2018-05-26T21:41:24.625Z,23.90
2018-05-26T21:43:52.921Z,23.90
2018-05-26T21:46:21.280Z,23.80
2018-05-26T21:48:49.182Z,23.80
2018-05-26T21:51:16.803Z,23.60
2018-05-26T21:53:44.454Z,23.50
2018-05-26T21:56:11.984Z,23.40
2018-05-26T21:58:39.689Z,23.30
2018-05-26T22:01:08.073Z,23.10
2018-05-26T22:03:35.644Z,23.10
2018-05-26T22:06:04.033Z,23.20
2018-05-26T22:08:31.521Z,23.10
2018-05-26T22:10:59.054Z,23.20
2018-05-26T22:13:26.689Z,23.10
2018-05-26T22:15:54.183Z,23.10
2018-05-26T22:18:21.806Z,23.00
2018-05-26T22:20:49.369Z,23.00
2018-05-26T22:23:16.924Z,22.90
2018-05-26T22:25:45.196Z,22.70
2018-05-26T22:28:12.827Z,22.70
2018-05-26T22:30:40.368Z,22.60
2018-05-26T22:33:08.770Z,22.50
2018-05-26T22:35:36.458Z,22.40
2018-05-26T22:38:05.152Z,22.30
2018-05-26T22:40:32.677Z,22.30
2018-05-26T22:43:00.495Z,22.20
2018-05-26T22:45:28.026Z,22.10
2018-05-26T22:47:56.471Z,22.00
2018-05-26T22:50:24.034Z,22.00
2018-05-26T22:52:51.559Z,21.90
2018-05-26T22:55:20.614Z,21.80
2018-05-26T22:57:48.106Z,21.90
2018-05-26T23:00:15.728Z,21.80
2018-05-26T23:02:44.016Z,21.60
2018-05-26T23:05:12.267Z,21.60
2018-05-26T23:07:39.850Z,21.60
2018-05-26T23:10:07.436Z,21.50
2018-05-26T23:12:34.979Z,21.40
2018-05-26T23:15:02.579Z,21.40
2018-05-26T23:17:30.074Z,21.30
2018-05-26T23:19:57.694Z,21.20
2018-05-26T23:22:25.429Z,21.20
2018-05-26T23:24:52.995Z,21.10
2018-05-26T23:27:20.482Z,21.10
2018-05-26T23:29:48.036Z,21.10
2018-05-26T23:32:15.549Z,21.10
2018-05-26T23:34:43.249Z,21.00
2018-05-26T23:37:10.816Z,20.90
2018-05-26T23:39:39.109Z,20.90
2018-05-26T23:42:06.623Z,20.90
2018-05-26T23:44:34.123Z,20.80
2018-05-26T23:47:01.733Z,20.80
2018-05-26T23:49:30.007Z,20.80
2018-05-26T23:51:57.635Z,20.70
2018-05-26T23:54:25.140Z,20.70
2018-05-26T23:56:52.729Z,20.70
2018-05-26T23:59:20.240Z,20.70
